Time;durP1;ratioP1;P1;durP2;ratioP2;P2;SDS_P1;SDS_P2;PMS_P1;PMS_P2;Temp;Humidity;BMP_temperature;BMP_pressure;BME280_temperature;BME280_humidity;BME280_pressure;Samples;Min_cycle;Max_cycle;Signal;HPM_P1;HPM_P2
2021/05/08 00:00:44;;;;;;;14.40;12.68;;;6.20;99.90;;;;;;5092369;28;20020;-76
2021/05/08 00:03:10;;;;;;;16.80;12.02;;;6.00;99.90;;;;;;5092902;28;20020;-75
2021/05/08 00:05:36;;;;;;;16.92;12.30;;;6.10;99.90;;;;;;5092357;28;20480;-77
2021/05/08 00:08:02;;;;;;;15.35;11.68;;;6.10;99.90;;;;;;5091830;28;20101;-77
2021/05/08 00:10:27;;;;;;;14.25;11.55;;;6.10;99.90;;;;;;5092276;28;20034;-76
2021/05/08 00:12:53;;;;;;;14.63;11.73;;;6.10;99.90;;;;;;5092063;28;20031;-75
2021/05/08 00:15:19;;;;;;;13.65;11.25;;;6.00;99.90;;;;;;5092552;28;20425;-75
2021/05/08 00:17:45;;;;;;;16.30;12.60;;;6.10;99.90;;;;;;5092376;28;20380;-75
2021/05/08 00:20:13;;;;;;;16.65;11.93;;;6.00;99.90;;;;;;5091881;28;20027;-75
2021/05/08 00:22:40;;;;;;;20.08;13.43;;;6.00;99.90;;;;;;5092280;28;20058;-75
2021/05/08 00:25:09;;;;;;;18.55;12.25;;;6.00;99.90;;;;;;5092416;28;20102;-76
2021/05/08 00:27:35;;;;;;;13.38;11.98;;;6.00;99.90;;;;;;5091161;28;20514;-75
2021/05/08 00:30:03;;;;;;;14.93;12.13;;;6.00;99.90;;;;;;5092342;28;20040;-76
2021/05/08 00:32:28;;;;;;;14.18;12.10;;;5.90;99.90;;;;;;5081934;28;20111;-75
2021/05/08 00:34:54;;;;;;;15.07;11.85;;;5.90;99.90;;;;;;5087809;28;20143;-76
2021/05/08 00:37:19;;;;;;;17.80;13.15;;;6.60;99.90;;;;;;5092081;28;20436;-77
2021/05/08 00:39:45;;;;;;;15.25;12.38;;;5.80;99.90;;;;;;5092395;28;20445;-76
2021/05/08 00:42:11;;;;;;;18.27;12.93;;;5.80;99.90;;;;;;5091749;28;20024;-76
2021/05/08 00:44:37;;;;;;;19.30;12.40;;;5.80;99.90;;;;;;5091865;28;20024;-76
2021/05/08 00:47:03;;;;;;;18.90;13.43;;;5.80;99.90;;;;;;5091981;28;20028;-76
2021/05/08 00:49:30;;;;;;;14.88;12.30;;;5.70;99.90;;;;;;5091383;28;20032;-76
2021/05/08 00:51:57;;;;;;;15.27;12.65;;;5.70;99.90;;;;;;5092105;28;20044;-76
2021/05/08 00:54:23;;;;;;;16.90;13.52;;;5.70;99.90;;;;;;5092292;28;20036;-75
2021/05/08 00:56:48;;;;;;;15.65;12.88;;;5.70;99.90;;;;;;5091566;28;20031;-75
2021/05/08 00:59:14;;;;;;;17.98;12.23;;;5.70;99.90;;;;;;5092051;28;20024;-76
2021/05/08 01:01:40;;;;;;;23.85;13.00;;;5.70;99.90;;;;;;5092228;28;20031;-75
2021/05/08 01:04:06;;;;;;;19.33;12.82;;;5.60;99.90;;;;;;5091736;28;20029;-75
2021/05/08 01:06:33;;;;;;;15.27;12.68;;;5.60;99.90;;;;;;5092625;28;20031;-75
2021/05/08 01:09:00;;;;;;;16.65;12.23;;;5.60;99.90;;;;;;5092682;28;20028;-75
2021/05/08 01:11:26;;;;;;;13.23;11.85;;;5.60;99.90;;;;;;5091429;28;20410;-76
2021/05/08 01:13:51;;;;;;;15.52;12.60;;;5.60;99.90;;;;;;5091722;28;20027;-76
2021/05/08 01:16:17;;;;;;;20.23;13.73;;;5.60;99.90;;;;;;5090929;28;20043;-75
2021/05/08 02:12:38;;;;;;;20.55;14.43;;;5.50;99.90;;;;;;5093296;28;20105;-76
2021/05/08 02:15:15;;;;;;;17.35;13.73;;;5.50;99.90;;;;;;5094758;28;20083;-76
2021/05/08 02:17:41;;;;;;;18.92;15.00;;;5.50;99.90;;;;;;5094545;28;20361;-76
2021/05/08 02:20:17;;;;;;;17.63;14.15;;;5.50;99.90;;;;;;5094309;28;20024;-75
2021/05/08 02:22:43;;;;;;;18.13;14.57;;;5.50;99.90;;;;;;5094705;28;20115;-75
2021/05/08 02:25:11;;;;;;;20.13;14.13;;;5.50;99.90;;;;;;5094398;28;20067;-75
2021/05/08 02:27:37;;;;;;;18.88;14.48;;;5.40;99.90;;;;;;5093689;28;20024;-76
2021/05/08 02:30:08;;;;;;;19.27;13.52;;;5.40;99.90;;;;;;5095724;28;20028;-76
2021/05/08 02:32:34;;;;;;;17.90;13.45;;;5.40;99.90;;;;;;5095400;28;20036;-76
2021/05/08 02:35:00;;;;;;;19.77;14.10;;;5.30;99.90;;;;;;5093526;28;20055;-76
2021/05/08 02:37:29;;;;;;;21.05;14.32;;;5.40;99.90;;;;;;5094146;28;20028;-76
2021/05/08 02:39:54;;;;;;;18.05;14.23;;;5.40;99.90;;;;;;5093768;28;20502;-76
2021/05/08 02:42:20;;;;;;;18.15;13.75;;;5.40;99.90;;;;;;5093183;28;20024;-76
2021/05/08 02:44:45;;;;;;;18.17;13.57;;;5.40;99.90;;;;;;5094446;28;20024;-76
2021/05/08 02:47:18;;;;;;;19.38;14.57;;;5.40;99.90;;;;;;5092987;28;20023;-76
2021/05/08 02:49:48;;;;;;;23.73;13.73;;;5.40;99.90;;;;;;5092859;28;20506;-76
2021/05/08 02:52:15;;;;;;;16.48;12.40;;;5.40;99.90;;;;;;5094005;28;20101;-76
2021/05/08 02:54:40;;;;;;;19.33;13.63;;;5.30;99.90;;;;;;5092820;28;20388;-75
2021/05/08 02:57:06;;;;;;;18.20;13.20;;;5.40;99.90;;;;;;5094107;28;20021;-77
2021/05/08 02:59:32;;;;;;;18.23;13.30;;;5.30;99.90;;;;;;5093773;28;20809;-76
2021/05/08 03:01:58;;;;;;;19.77;13.43;;;5.30;99.90;;;;;;5093202;28;20028;-76
2021/05/08 03:04:23;;;;;;;16.73;12.43;;;5.30;99.90;;;;;;5093735;28;20111;-76
2021/05/08 03:06:49;;;;;;;18.08;13.70;;;5.30;99.90;;;;;;5093748;28;20084;-75
2021/05/08 03:09:15;;;;;;;13.75;12.27;;;5.20;99.90;;;;;;5093157;28;20042;-77
2021/05/08 03:11:41;;;;;;;15.88;12.07;;;5.20;99.90;;;;;;5093222;28;20044;-74
2021/05/08 03:14:07;;;;;;;18.50;12.95;;;5.30;99.90;;;;;;5093675;28;20089;-75
2021/05/08 03:16:34;;;;;;;13.77;11.43;;;5.20;99.90;;;;;;5092758;28;20039;-76
2021/05/08 03:18:59;;;;;;;14.65;12.50;;;5.30;99.90;;;;;;5093514;28;20126;-76
2021/05/08 03:21:25;;;;;;;17.67;11.57;;;5.30;99.90;;;;;;5092874;28;20038;-76
2021/05/08 03:23:51;;;;;;;18.23;11.65;;;5.30;99.90;;;;;;5092748;28;20103;-76
2021/05/08 03:26:16;;;;;;;15.80;11.60;;;5.40;99.90;;;;;;5093161;28;20384;-76
2021/05/08 03:28:42;;;;;;;18.88;11.75;;;5.40;99.90;;;;;;5093114;28;20024;-76
2021/05/08 03:31:08;;;;;;;12.38;10.23;;;5.40;99.90;;;;;;5093155;28;20034;-76
2021/05/08 03:33:33;;;;;;;15.40;11.15;;;5.40;99.90;;;;;;5093105;28;20032;-76
2021/05/08 03:35:59;;;;;;;17.15;10.32;;;5.40;99.90;;;;;;5092907;28;20113;-76
2021/05/08 03:38:24;;;;;;;13.63;10.27;;;5.50;99.90;;;;;;5092264;28;20043;-76
2021/05/08 03:40:50;;;;;;;13.45;10.38;;;5.50;99.90;;;;;;5093556;28;20106;-77
2021/05/08 03:43:15;;;;;;;19.02;10.80;;;5.60;99.90;;;;;;5095944;28;20021;-75
2021/05/08 03:45:41;;;;;;;13.57;9.52;;;5.60;99.90;;;;;;5092673;28;20081;-77
2021/05/08 03:48:06;;;;;;;11.43;8.68;;;5.60;99.90;;;;;;5092981;28;20024;-76
2021/05/08 03:50:32;;;;;;;13.57;9.52;;;5.70;99.90;;;;;;5092916;28;20028;-75
2021/05/08 03:52:58;;;;;;;11.45;9.57;;;5.60;99.90;;;;;;5094526;28;20024;-75
2021/05/08 03:55:23;;;;;;;12.20;9.00;;;5.70;99.90;;;;;;5094929;28;20036;-76
2021/05/08 03:57:49;;;;;;;9.73;8.38;;;5.70;99.90;;;;;;5097431;28;20028;-76
2021/05/08 04:00:15;;;;;;;11.35;8.45;;;5.70;99.90;;;;;;5092805;28;20020;-75
2021/05/08 04:02:40;;;;;;;16.25;8.68;;;5.70;99.90;;;;;;5093131;28;20020;-75
2021/05/08 04:05:07;;;;;;;13.50;8.55;;;5.70;99.90;;;;;;5092087;28;20020;-76
2021/05/08 04:07:35;;;;;;;12.38;7.82;;;5.70;99.90;;;;;;5092671;28;20433;-76
2021/05/08 04:10:01;;;;;;;9.93;8.73;;;5.80;99.90;;;;;;5092471;28;20081;-77
2021/05/08 04:12:27;;;;;;;10.90;8.10;;;5.80;99.90;;;;;;5091973;28;20044;-77
2021/05/08 04:14:52;;;;;;;9.35;7.25;;;5.80;99.90;;;;;;5092752;28;20369;-76
2021/05/08 04:17:18;;;;;;;10.63;7.80;;;5.80;99.90;;;;;;5092233;28;20404;-76
2021/05/08 04:19:43;;;;;;;9.88;7.57;;;5.80;99.90;;;;;;5092129;28;20046;-75
2021/05/08 04:22:10;;;;;;;8.88;7.28;;;5.90;99.90;;;;;;5092708;28;20102;-76
2021/05/08 04:24:36;;;;;;;13.73;7.55;;;5.90;99.90;;;;;;5092130;28;20055;-75
2021/05/08 04:27:01;;;;;;;12.40;6.93;;;6.00;99.90;;;;;;5092087;28;20048;-76
2021/05/08 04:29:27;;;;;;;9.43;6.55;;;6.10;99.90;;;;;;5092509;28;20068;-76
2021/05/08 04:31:52;;;;;;;11.90;7.15;;;6.20;99.90;;;;;;5092441;28;20081;-76
2021/05/08 04:34:19;;;;;;;8.10;6.65;;;6.20;99.90;;;;;;5091627;28;20097;-76
2021/05/08 04:36:44;;;;;;;10.27;6.97;;;6.20;99.90;;;;;;5092363;28;20387;-76
2021/05/08 04:39:10;;;;;;;9.30;6.22;;;6.30;99.90;;;;;;5092353;28;20028;-76
2021/05/08 04:41:35;;;;;;;12.13;6.57;;;6.30;99.90;;;;;;5091861;28;20020;-75
2021/05/08 04:44:04;;;;;;;8.52;6.43;;;6.40;99.90;;;;;;5092489;28;20032;-76
2021/05/08 04:46:29;;;;;;;7.78;6.43;;;6.40;99.90;;;;;;5091904;28;20025;-76
2021/05/08 04:48:55;;;;;;;6.80;6.10;;;6.50;99.90;;;;;;5091818;28;20031;-77
2021/05/08 04:51:21;;;;;;;7.25;6.32;;;6.50;99.90;;;;;;5092200;28;20107;-77
2021/05/08 04:53:50;;;;;;;7.00;6.30;;;6.50;99.90;;;;;;5091434;28;20028;-76
2021/05/08 04:56:17;;;;;;;10.80;6.78;;;6.50;99.90;;;;;;5091697;28;20051;-78
2021/05/08 04:58:43;;;;;;;7.80;6.38;;;6.60;99.90;;;;;;5092231;28;20017;-80
2021/05/08 05:01:09;;;;;;;9.20;6.15;;;6.60;99.90;;;;;;5091814;28;20040;-77
2021/05/08 05:03:35;;;;;;;9.00;6.30;;;6.70;99.90;;;;;;5091532;28;20028;-76
2021/05/08 05:06:01;;;;;;;11.20;6.25;;;6.70;99.90;;;;;;5091909;28;20040;-77
2021/05/08 05:08:27;;;;;;;7.70;6.25;;;6.80;99.90;;;;;;5091127;28;20016;-78
2021/05/08 05:10:53;;;;;;;6.95;6.25;;;6.90;99.90;;;;;;5095769;28;20028;-80
2021/05/08 05:13:19;;;;;;;8.95;7.03;;;7.00;99.90;;;;;;5095669;28;20039;-81
2021/05/08 05:15:45;;;;;;;9.45;6.60;;;7.10;99.90;;;;;;5096197;28;20032;-78
2021/05/08 05:18:11;;;;;;;10.80;6.45;;;7.10;99.90;;;;;;5096296;28;20374;-78
2021/05/08 05:20:37;;;;;;;7.55;6.65;;;7.10;99.90;;;;;;5095610;28;20093;-77
2021/05/08 05:23:03;;;;;;;7.63;6.15;;;7.20;99.90;;;;;;5095218;28;20024;-77
2021/05/08 05:25:28;;;;;;;10.07;6.30;;;7.30;99.90;;;;;;5095535;28;20376;-79
2021/05/08 05:27:54;;;;;;;14.40;7.50;;;7.30;99.90;;;;;;5094761;28;20400;-79
2021/05/08 05:30:21;;;;;;;10.27;7.68;;;7.30;99.90;;;;;;5094946;28;20043;-78
2021/05/08 05:32:46;;;;;;;13.77;7.47;;;7.40;99.90;;;;;;5095754;28;20024;-78
2021/05/08 05:35:12;;;;;;;12.73;7.43;;;7.50;99.90;;;;;;5095356;28;20036;-77
2021/05/08 05:37:41;;;;;;;12.48;7.28;;;7.70;99.90;;;;;;5094507;28;20020;-77
2021/05/08 05:40:07;;;;;;;11.15;7.35;;;7.80;99.90;;;;;;5095673;28;20055;-77
2021/05/08 05:42:33;;;;;;;9.05;6.40;;;7.90;99.90;;;;;;5096710;28;20387;-78
2021/05/08 05:44:59;;;;;;;10.48;6.63;;;7.80;99.90;;;;;;5095282;28;20024;-77
2021/05/08 05:47:27;;;;;;;11.68;7.30;;;8.10;99.90;;;;;;5095152;28;20403;-78
2021/05/08 05:49:54;;;;;;;9.90;7.05;;;8.20;99.90;;;;;;5095235;28;20384;-77
2021/05/08 05:52:21;;;;;;;10.43;7.13;;;8.20;99.90;;;;;;5096394;28;20020;-79
2021/05/08 05:54:48;;;;;;;15.45;7.72;;;8.30;99.90;;;;;;5096727;28;20028;-76
2021/05/08 05:57:14;;;;;;;12.00;7.65;;;8.30;99.90;;;;;;5101441;28;20021;-77
2021/05/08 05:59:40;;;;;;;9.35;7.25;;;8.40;99.90;;;;;;5097046;28;20073;-77
2021/05/08 06:02:06;;;;;;;13.15;7.18;;;8.30;99.90;;;;;;5095066;28;20035;-78
2021/05/08 06:04:32;;;;;;;12.32;7.90;;;8.40;99.90;;;;;;5094763;28;20588;-76
2021/05/08 06:06:59;;;;;;;11.30;8.00;;;8.40;99.90;;;;;;5096119;28;20103;-78
2021/05/08 06:09:27;;;;;;;10.88;7.13;;;8.40;99.90;;;;;;5094632;28;20024;-75
2021/05/08 06:11:57;;;;;;;10.15;7.70;;;8.50;99.90;;;;;;5094410;28;20043;-78
2021/05/08 06:14:27;;;;;;;9.63;7.70;;;8.50;99.90;;;;;;5094740;28;20047;-76
2021/05/08 06:16:55;;;;;;;11.63;7.82;;;8.50;99.90;;;;;;5094289;28;20020;-78
2021/05/08 06:19:22;;;;;;;11.27;7.88;;;8.60;99.90;;;;;;5093942;28;20114;-77
2021/05/08 06:21:47;;;;;;;11.98;8.23;;;8.70;99.90;;;;;;5094184;28;20058;-76
2021/05/08 06:24:13;;;;;;;9.50;7.55;;;8.70;99.90;;;;;;5093804;28;20460;-79
2021/05/08 06:26:38;;;;;;;10.00;7.78;;;8.70;99.90;;;;;;5093715;28;20032;-78
2021/05/08 06:29:04;;;;;;;9.27;7.63;;;8.80;99.90;;;;;;5094228;28;20106;-77
2021/05/08 06:31:31;;;;;;;8.35;7.28;;;8.80;99.90;;;;;;5094079;28;20328;-77
2021/05/08 06:33:56;;;;;;;14.48;7.07;;;8.90;99.90;;;;;;5093624;28;20039;-78
2021/05/08 06:36:23;;;;;;;7.82;6.90;;;9.00;99.90;;;;;;5094025;28;20020;-78
2021/05/08 06:38:48;;;;;;;9.38;6.90;;;9.00;99.90;;;;;;5093795;28;20475;-77
2021/05/08 06:41:15;;;;;;;9.38;7.93;;;9.00;99.90;;;;;;5093401;28;20031;-77
2021/05/08 06:43:41;;;;;;;15.35;7.50;;;9.00;99.90;;;;;;5094101;28;20028;-78
2021/05/08 06:46:08;;;;;;;16.30;7.35;;;9.10;99.90;;;;;;5093818;28;20422;-78
2021/05/08 06:48:37;;;;;;;11.27;7.88;;;9.10;99.90;;;;;;5093912;28;20099;-77
2021/05/08 06:51:05;;;;;;;9.85;8.10;;;9.20;99.90;;;;;;5094019;28;20012;-77
2021/05/08 06:53:31;;;;;;;11.77;7.70;;;9.20;99.90;;;;;;5093684;28;20414;-78
2021/05/08 06:55:56;;;;;;;8.80;6.97;;;9.30;99.90;;;;;;5093501;28;20038;-77
2021/05/08 06:58:22;;;;;;;12.02;7.68;;;9.30;99.90;;;;;;5093901;28;20069;-78
2021/05/08 07:00:47;;;;;;;11.40;7.95;;;9.40;99.90;;;;;;5093822;28;20460;-78
2021/05/08 07:03:13;;;;;;;13.00;7.63;;;9.50;99.90;;;;;;5093908;28;20487;-78
2021/05/08 07:05:39;;;;;;;10.32;6.78;;;9.60;99.90;;;;;;5093348;28;20491;-76
2021/05/08 07:08:06;;;;;;;9.52;7.85;;;9.70;99.90;;;;;;5094666;28;20035;-77
2021/05/08 07:10:32;;;;;;;8.50;7.30;;;9.70;99.90;;;;;;5094019;28;20107;-75
2021/05/08 07:12:57;;;;;;;10.10;8.05;;;9.70;99.90;;;;;;5094121;28;20132;-77
2021/05/08 07:15:23;;;;;;;12.48;8.40;;;9.80;99.90;;;;;;5094042;28;20032;-78
2021/05/08 07:17:59;;;;;;;12.27;8.70;;;9.80;99.90;;;;;;5094474;28;20100;-76
2021/05/08 07:20:25;;;;;;;8.63;7.65;;;9.80;99.90;;;;;;5093972;28;20016;-76
2021/05/08 07:22:50;;;;;;;8.93;8.02;;;9.90;99.90;;;;;;5092941;28;20146;-77
2021/05/08 07:25:16;;;;;;;13.02;8.07;;;9.90;99.90;;;;;;5093363;28;20487;-78
2021/05/08 07:27:42;;;;;;;8.75;7.85;;;9.90;99.90;;;;;;5093255;28;20016;-77
2021/05/08 07:30:10;;;;;;;9.38;8.38;;;10.00;99.90;;;;;;5093078;28;20032;-77
2021/05/08 07:32:36;;;;;;;11.80;7.78;;;10.00;99.90;;;;;;5092793;28;20016;-77
2021/05/08 07:35:07;;;;;;;8.52;6.78;;;10.00;99.90;;;;;;5093563;28;20031;-76
2021/05/08 07:37:32;;;;;;;;;;;10.10;99.90;;;;;;5079787;28;20020;-77
2021/05/08 07:39:58;;;;;;;9.55;7.65;;;10.20;99.90;;;;;;5093399;28;20369;-79
2021/05/08 07:42:23;;;;;;;8.15;7.35;;;10.20;99.90;;;;;;5095986;28;20028;-76
2021/05/08 07:44:49;;;;;;;12.23;8.40;;;10.30;99.90;;;;;;5093462;28;20023;-76
2021/05/08 07:47:14;;;;;;;8.52;7.03;;;10.30;99.90;;;;;;5093713;28;20345;-76
2021/05/08 07:49:40;;;;;;;10.63;7.65;;;10.40;99.90;;;;;;5093143;28;20020;-77
2021/05/08 07:52:07;;;;;;;10.88;8.90;;;10.50;99.90;;;;;;5092880;28;20016;-76
2021/05/08 07:54:33;;;;;;;11.93;8.00;;;10.50;99.90;;;;;;5092846;28;20064;-75
2021/05/08 07:56:59;;;;;;;10.40;7.47;;;10.60;99.90;;;;;;5093849;28;20058;-78
2021/05/08 07:59:25;;;;;;;13.18;7.80;;;10.60;99.90;;;;;;5094261;28;20027;-78
2021/05/08 08:01:50;;;;;;;10.88;7.35;;;10.80;99.90;;;;;;5094432;28;20027;-79
2021/05/08 08:04:16;;;;;;;9.63;7.80;;;10.80;99.90;;;;;;5093673;28;20118;-78
2021/05/08 08:06:42;;;;;;;9.35;7.25;;;10.80;99.90;;;;;;5094904;28;20056;-77
2021/05/08 08:09:07;;;;;;;10.00;7.95;;;10.80;99.90;;;;;;5093464;28;20487;-77
2021/05/08 08:11:33;;;;;;;12.73;7.75;;;10.90;99.90;;;;;;5093175;28;20097;-78
2021/05/08 08:13:59;;;;;;;11.07;7.13;;;11.00;99.90;;;;;;5095177;28;20024;-78
2021/05/08 08:16:25;;;;;;;8.32;6.93;;;11.10;99.90;;;;;;5094418;28;20101;-78
2021/05/08 08:18:51;;;;;;;10.75;7.60;;;11.20;99.90;;;;;;5094674;28;20034;-77
2021/05/08 08:21:16;;;;;;;10.48;8.57;;;11.30;99.90;;;;;;5094595;28;20111;-81
2021/05/08 08:23:42;;;;;;;11.10;7.63;;;11.30;99.90;;;;;;5094373;28;20024;-78
2021/05/08 08:26:08;;;;;;;10.35;7.10;;;11.40;99.90;;;;;;5094184;28;20032;-75
2021/05/08 08:28:33;;;;;;;9.93;7.68;;;11.50;99.90;;;;;;5095671;28;20020;-80
2021/05/08 08:30:59;;;;;;;17.50;8.35;;;11.60;99.90;;;;;;5096242;28;20429;-79
2021/05/08 08:33:26;;;;;;;13.95;7.00;;;11.70;99.90;;;;;;5097224;28;20020;-79
2021/05/08 08:35:54;;;;;;;9.15;7.05;;;11.80;99.90;;;;;;5095014;28;20042;-78
2021/05/08 08:38:20;;;;;;;8.55;6.57;;;11.90;99.90;;;;;;5089134;28;20472;-77
2021/05/08 08:40:46;;;;;;;8.38;6.85;;;12.20;99.90;;;;;;5091768;28;20051;-77
2021/05/08 08:43:12;;;;;;;9.50;7.75;;;12.30;99.90;;;;;;5093101;28;20084;-76
2021/05/08 08:45:38;;;;;;;8.75;7.28;;;12.40;99.90;;;;;;5095487;28;20035;-76
2021/05/08 08:48:04;;;;;;;11.75;7.75;;;12.40;99.90;;;;;;5093470;28;20042;-76
2021/05/08 08:50:35;;;;;;;21.50;13.32;;;12.50;99.90;;;;;;5095767;28;20070;-76
2021/05/08 08:53:01;;;;;;;;;;;12.70;99.90;;;;;;5096281;28;20154;-77
2021/05/08 08:55:27;;;;;;;11.00;7.15;;;12.90;99.90;;;;;;5095045;28;20346;-77
2021/05/08 08:57:56;;;;;;;10.75;6.90;;;13.00;99.90;;;;;;5096177;28;20023;-77
2021/05/08 09:00:25;;;;;;;9.55;6.05;;;13.20;99.90;;;;;;5095465;28;20024;-77
2021/05/08 09:02:51;;;;;;;10.10;6.00;;;13.30;99.90;;;;;;5094923;28;20024;-77
2021/05/08 09:05:19;;;;;;;10.40;7.22;;;13.40;99.90;;;;;;5095703;28;20034;-75
2021/05/08 09:07:46;;;;;;;8.15;6.35;;;13.40;99.90;;;;;;5095431;28;20479;-76
2021/05/08 09:10:30;;;;;;;8.40;6.93;;;13.50;99.90;;;;;;5096230;28;20086;-75
2021/05/08 09:12:57;;;;;;;7.38;6.10;;;13.50;99.90;;;;;;5095242;28;20518;-74
2021/05/08 09:15:40;;;;;;;5.82;5.20;;;13.40;99.90;;;;;;5095152;28;20140;-76
2021/05/08 09:18:07;;;;;;;10.10;7.10;;;13.40;99.90;;;;;;5095709;28;20028;-76
2021/05/08 09:20:46;;;;;;;12.35;8.57;;;13.30;99.90;;;;;;5095375;28;20470;-75
2021/05/08 09:23:20;;;;;;;12.70;10.43;;;13.30;99.90;;;;;;5095390;28;20055;-75
2021/05/08 09:26:06;;;;;;;9.05;6.28;;;13.30;99.90;;;;;;5096273;28;20023;-76
2021/05/08 09:28:35;;;;;;;8.50;7.47;;;13.30;99.90;;;;;;5095586;28;20074;-77
2021/05/08 09:31:02;;;;;;;6.88;5.15;;;13.30;99.90;;;;;;5095661;28;20049;-76
2021/05/08 09:33:29;;;;;;;6.03;5.43;;;13.30;99.90;;;;;;5095188;28;20036;-76
2021/05/08 09:36:05;;;;;;;6.95;5.97;;;13.30;99.90;;;;;;5095223;28;20132;-76
2021/05/08 09:38:36;;;;;;;6.75;5.45;;;13.30;99.90;;;;;;5094849;28;20020;-77
2021/05/08 09:41:04;;;;;;;11.30;8.30;;;13.30;99.90;;;;;;5095159;28;20032;-77
2021/05/08 09:43:30;;;;;;;8.98;7.78;;;13.30;99.90;;;;;;5094634;28;20468;-77
2021/05/08 09:45:57;;;;;;;6.57;4.65;;;13.30;99.90;;;;;;5095301;28;20024;-77
2021/05/08 09:48:34;;;;;;;5.55;4.32;;;13.20;99.90;;;;;;5094767;28;20498;-76
2021/05/08 09:51:25;;;;;;;4.68;4.03;;;13.20;99.90;;;;;;5094811;28;20024;-78
2021/05/08 09:53:55;;;;;;;6.45;4.38;;;13.10;99.90;;;;;;5094634;28;20483;-77
2021/05/08 09:56:40;;;;;;;5.93;4.53;;;13.10;99.90;;;;;;5094450;28;20032;-77
2021/05/08 09:59:26;;;;;;;6.78;4.80;;;13.10;99.90;;;;;;5095022;28;20471;-77
2021/05/08 10:02:05;;;;;;;5.30;4.80;;;13.10;99.90;;;;;;5082168;28;20103;-78
2021/05/08 10:04:57;;;;;;;9.82;5.93;;;13.10;99.90;;;;;;5094151;28;20345;-77
2021/05/08 10:07:25;;;;;;;8.57;4.55;;;13.10;99.90;;;;;;5094598;28;20036;-77
2021/05/08 10:09:52;;;;;;;5.18;4.47;;;13.10;99.90;;;;;;5094613;28;20024;-78
2021/05/08 10:12:20;;;;;;;7.40;5.63;;;13.10;99.90;;;;;;5093880;28;20054;-78
2021/05/08 10:14:48;;;;;;;7.35;5.20;;;13.10;99.90;;;;;;5094938;28;20036;-76
2021/05/08 10:17:16;;;;;;;16.45;10.15;;;13.10;99.90;;;;;;5095270;28;20028;-78
2021/05/08 10:19:45;;;;;;;13.88;9.00;;;13.10;99.90;;;;;;5096224;28;20069;-77
2021/05/08 10:22:12;;;;;;;8.40;6.10;;;13.10;99.90;;;;;;5095153;28;20379;-77
2021/05/08 10:24:40;;;;;;;12.57;8.13;;;13.00;99.90;;;;;;5095046;28;20051;-77
2021/05/08 10:27:06;;;;;;;17.35;10.13;;;12.90;99.90;;;;;;5094773;28;20149;-78
2021/05/08 10:29:37;;;;;;;8.95;6.18;;;12.90;99.90;;;;;;5095229;28;20028;-80
2021/05/08 10:32:09;;;;;;;8.18;6.57;;;12.90;99.90;;;;;;5095909;28;20077;-78
2021/05/08 10:34:37;;;;;;;14.90;10.52;;;12.80;99.90;;;;;;5100133;28;20046;-79
2021/05/08 10:37:07;;;;;;;8.80;5.70;;;12.70;99.90;;;;;;5097917;28;20031;-78
2021/05/08 10:40:05;;;;;;;5.93;4.97;;;12.60;99.90;;;;;;5095412;28;20430;-80
2021/05/08 10:42:45;;;;;;;5.50;4.63;;;12.50;99.90;;;;;;5080652;28;20040;-79
2021/05/08 10:45:22;;;;;;;8.30;5.38;;;12.60;99.90;;;;;;5076195;28;20481;-79
2021/05/08 10:48:02;;;;;;;6.32;4.70;;;12.60;99.90;;;;;;5081834;28;20028;-79
2021/05/08 10:50:39;;;;;;;6.25;4.93;;;12.60;99.90;;;;;;5094538;28;20024;-82
2021/05/08 10:53:12;;;;;;;5.68;4.60;;;12.60;99.90;;;;;;5094388;28;20032;-81
2021/05/08 10:55:47;;;;;;;5.85;5.00;;;12.50;99.90;;;;;;5094498;28;20094;-82
2021/05/08 10:58:19;;;;;;;6.82;4.75;;;12.50;99.90;;;;;;5093839;28;20020;-82
2021/05/08 11:00:48;;;;;;;5.50;5.00;;;12.40;99.90;;;;;;5092586;28;20499;-80
2021/05/08 11:03:15;;;;;;;5.38;4.88;;;12.30;99.90;;;;;;5093385;28;20027;-77
2021/05/08 11:05:52;;;;;;;8.68;5.05;;;12.20;99.90;;;;;;5093785;28;20387;-78
2021/05/08 11:08:27;;;;;;;6.00;4.88;;;12.10;99.90;;;;;;5092231;28;20035;-79
2021/05/08 11:11:12;;;;;;;5.05;4.57;;;11.90;99.90;;;;;;5093460;28;20073;-80
2021/05/08 11:13:43;;;;;;;7.13;5.25;;;11.80;99.90;;;;;;5093813;28;20130;-80
2021/05/08 11:16:17;;;;;;;5.43;4.93;;;11.70;99.90;;;;;;5093162;28;20375;-79
2021/05/08 11:18:51;;;;;;;5.75;4.60;;;11.70;99.90;;;;;;5093388;28;20384;-79
2021/05/08 11:21:17;;;;;;;8.73;4.85;;;11.70;99.90;;;;;;5092788;28;20059;-80
2021/05/08 11:23:45;;;;;;;6.07;5.32;;;11.60;99.90;;;;;;5093518;28;20077;-79
2021/05/08 11:26:29;;;;;;;6.20;4.80;;;11.60;99.90;;;;;;5093601;28;20031;-80
2021/05/08 11:28:59;;;;;;;6.03;5.43;;;11.60;99.90;;;;;;5093197;28;20044;-79
2021/05/08 11:31:46;;;;;;;;;;;11.60;99.90;;;;;;5093475;28;20024;-79
2021/05/08 11:34:14;;;;;;;9.38;7.10;;;11.70;99.90;;;;;;5075852;28;19986;-79
2021/05/08 11:36:58;;;;;;;6.78;6.18;;;11.70;99.90;;;;;;5092682;28;20047;-79
2021/05/08 11:39:28;;;;;;;7.65;6.65;;;11.70;99.90;;;;;;5081263;28;20027;-78
2021/05/08 11:42:03;;;;;;;7.45;6.63;;;11.70;99.90;;;;;;5093149;28;20535;-79
2021/05/08 11:44:32;;;;;;;6.88;5.65;;;11.70;99.90;;;;;;5092559;28;20024;-79
2021/05/08 11:47:27;;;;;;;5.13;4.57;;;11.70;99.90;;;;;;5092875;28;20070;-79
2021/05/08 11:49:56;;;;;;;13.48;5.55;;;11.60;99.90;;;;;;5086383;28;20016;-79
2021/05/08 11:52:41;;;;;;;5.15;4.65;;;11.60;99.90;;;;;;5084823;28;20032;-78
2021/05/08 11:55:13;;;;;;;6.43;4.95;;;11.70;99.90;;;;;;5086584;28;20047;-74
2021/05/08 11:57:43;;;;;;;7.78;5.22;;;11.70;99.90;;;;;;5090122;28;20071;-75
2021/05/08 12:00:14;;;;;;;5.57;5.07;;;11.70;99.90;;;;;;5091010;28;20036;-75
2021/05/08 12:02:39;;;;;;;;;;;11.70;99.90;;;;;;5092034;28;20551;-75
2021/05/08 12:05:05;;;;;;;6.82;5.50;;;11.70;99.90;;;;;;5070777;28;20026;-75
2021/05/08 12:07:31;;;;;;;5.40;4.90;;;11.60;99.90;;;;;;5091132;28;20043;-74
2021/05/08 12:10:16;;;;;;;5.95;5.30;;;11.60;99.90;;;;;;5091265;28;20110;-76
2021/05/08 12:12:46;;;;;;;5.35;4.60;;;11.60;99.90;;;;;;5091677;28;20559;-76
2021/05/08 12:15:13;;;;;;;5.20;4.68;;;11.50;99.90;;;;;;5091097;28;20445;-76
2021/05/08 12:17:39;;;;;;;5.80;4.80;;;11.60;99.90;;;;;;5090804;28;20118;-77
2021/05/08 12:20:07;;;;;;;5.07;4.68;;;11.70;99.90;;;;;;5089457;28;20531;-77
2021/05/08 12:22:33;;;;;;;7.00;5.20;;;11.70;99.90;;;;;;5091156;28;20049;-77
2021/05/08 12:24:59;;;;;;;7.22;5.38;;;11.70;99.90;;;;;;5090024;28;20070;-77
2021/05/08 12:27:24;;;;;;;6.00;5.40;;;11.70;99.90;;;;;;5090097;28;20375;-77
2021/05/08 12:29:55;;;;;;;6.20;5.60;;;11.60;99.90;;;;;;5091391;28;20031;-78
2021/05/08 12:32:21;;;;;;;;;;;11.70;99.90;;;;;;5086120;28;20047;-77
2021/05/08 12:34:54;;;;;;;5.80;5.15;;;11.70;99.90;;;;;;5084658;28;19912;-77
2021/05/08 12:37:20;;;;;;;5.72;5.22;;;11.80;99.90;;;;;;5091482;28;20436;-77
2021/05/08 12:39:46;;;;;;;5.65;4.95;;;11.80;99.90;;;;;;5091717;28;20048;-78
2021/05/08 12:42:11;;;;;;;7.45;5.30;;;11.80;99.90;;;;;;5091854;28;20483;-77
2021/05/08 12:44:40;;;;;;;10.57;5.70;;;11.90;99.90;;;;;;5091685;28;20054;-77
2021/05/08 12:47:32;;;;;;;6.15;4.88;;;12.80;99.90;;;;;;5091505;28;20016;-77
2021/05/08 12:50:13;;;;;;;7.88;5.47;;;11.90;99.90;;;;;;5091173;28;20080;-76
2021/05/08 12:53:00;;;;;;;5.50;4.90;;;12.00;99.90;;;;;;5091529;28;20107;-77
2021/05/08 12:55:27;;;;;;;7.25;5.03;;;11.90;99.90;;;;;;5086189;28;20361;-77
2021/05/08 12:57:53;;;;;;;7.00;5.63;;;11.90;99.90;;;;;;5091884;28;20048;-77
2021/05/08 13:00:20;;;;;;;6.68;5.80;;;11.90;99.90;;;;;;5091475;28;20024;-76
2021/05/08 13:02:48;;;;;;;6.85;6.18;;;11.80;99.90;;;;;;5092256;28;20106;-77
2021/05/08 13:05:15;;;;;;;7.25;5.57;;;11.80;99.90;;;;;;5091668;28;20021;-76
2021/05/08 13:08:00;;;;;;;6.65;6.05;;;11.70;99.90;;;;;;5091963;28;20462;-75
2021/05/08 13:10:40;;;;;;;7.82;5.68;;;11.70;99.90;;;;;;5081189;28;20051;-77
2021/05/08 13:13:21;;;;;;;6.65;6.00;;;11.60;99.90;;;;;;5091354;28;20423;-78
2021/05/08 13:15:54;;;;;;;7.05;6.20;;;11.60;99.90;;;;;;5086044;28;20122;-76
2021/05/08 13:18:21;;;;;;;8.98;6.10;;;11.50;99.90;;;;;;5090311;28;20040;-75
2021/05/08 13:20:47;;;;;;;10.32;6.70;;;11.40;99.90;;;;;;5087247;28;20031;-76
2021/05/08 13:23:13;;;;;;;6.30;5.70;;;11.40;99.90;;;;;;5089452;28;20024;-75
2021/05/08 13:25:40;;;;;;;8.77;6.28;;;11.40;99.90;;;;;;5088193;28;20026;-76
2021/05/08 13:28:05;;;;;;;9.73;6.55;;;11.40;99.90;;;;;;5090460;28;20078;-76
2021/05/08 13:30:31;;;;;;;8.52;7.47;;;11.40;99.90;;;;;;5092725;28;20459;-76
2021/05/08 13:32:58;;;;;;;8.57;6.90;;;11.40;99.90;;;;;;5094985;28;20376;-77
2021/05/08 13:35:26;;;;;;;8.20;7.43;;;11.30;99.90;;;;;;5094026;28;20036;-76
2021/05/08 13:37:56;;;;;;;8.07;7.30;;;11.30;99.90;;;;;;5094963;28;20021;-74
2021/05/08 13:40:22;;;;;;;12.25;7.68;;;11.20;99.90;;;;;;5094340;28;20107;-77
2021/05/08 13:42:48;;;;;;;7.90;7.05;;;11.20;99.90;;;;;;5094243;28;20111;-76
2021/05/08 13:45:14;;;;;;;7.43;6.72;;;11.30;99.90;;;;;;5094185;28;20020;-77